sensor_id;sensor_type;location;lat;lon;timestamp;P1;P2;P0
62054;PMS5003;48653;51.742;-1.256;2023-08-17T00:01:47;11;9;
62054;PMS5003;48653;51.742;-1.256;2023-08-17T00:04:12;12;8;
62054;PMS5003;48653;51.742;-1.256;2023-08-17T00:06:37;10;10;
62054;PMS5003;48653;51.742;-1.256;2023-08-17T00:09:02;7;7;
62054;PMS5003;48653;51.742;-1.256;2023-08-17T00:11:27;7;7;
62054;PMS5003;48653;51.742;-1.256;2023-08-17T00:13:53;9;8;
62054;PMS5003;48653;51.742;-1.256;2023-08-17T00:16:18;11;11;
62054;PMS5003;48653;51.742;-1.256;2023-08-17T00:18:43;11;10;
62054;PMS5003;48653;51.742;-1.256;2023-08-17T00:21:08;11;8;
62054;PMS5003;48653;51.742;-1.256;2023-08-17T00:23:33;11;11;
62054;PMS5003;48653;51.742;-1.256;2023-08-17T00:25:59;13;12;
62054;PMS5003;48653;51.742;-1.256;2023-08-17T00:28:24;10;10;
62054;PMS5003;48653;51.742;-1.256;2023-08-17T00:30:50;15;12;
62054;PMS5003;48653;51.742;-1.256;2023-08-17T00:33:14;13;11;
62054;PMS5003;48653;51.742;-1.256;2023-08-17T00:35:39;14;14;
62054;PMS5003;48653;51.742;-1.256;2023-08-17T00:38:04;12;11;
62054;PMS5003;48653;51.742;-1.256;2023-08-17T00:40:30;14;13;
62054;PMS5003;48653;51.742;-1.256;2023-08-17T00:42:55;13;12;
62054;PMS5003;48653;51.742;-1.256;2023-08-17T00:45:21;15;14;
62054;PMS5003;48653;51.742;-1.256;2023-08-17T00:47:46;11;11;
62054;PMS5003;48653;51.742;-1.256;2023-08-17T00:50:11;15;14;
62054;PMS5003;48653;51.742;-1.256;2023-08-17T00:52:36;13;13;
62054;PMS5003;48653;51.742;-1.256;2023-08-17T00:55:01;14;11;
62054;PMS5003;48653;51.742;-1.256;2023-08-17T00:57:26;13;12;
62054;PMS5003;48653;51.742;-1.256;2023-08-17T00:59:52;10;10;
62054;PMS5003;48653;51.742;-1.256;2023-08-17T01:02:17;10;10;
62054;PMS5003;48653;51.742;-1.256;2023-08-17T01:04:42;13;12;
62054;PMS5003;48653;51.742;-1.256;2023-08-17T01:07:08;12;11;
62054;PMS5003;48653;51.742;-1.256;2023-08-17T01:09:33;12;10;
62054;PMS5003;48653;51.742;-1.256;2023-08-17T01:11:59;15;10;
62054;PMS5003;48653;51.742;-1.256;2023-08-17T01:14:25;10;9;
62054;PMS5003;48653;51.742;-1.256;2023-08-17T01:16:50;10;10;
62054;PMS5003;48653;51.742;-1.256;2023-08-17T01:19:16;12;10;
62054;PMS5003;48653;51.742;-1.256;2023-08-17T01:21:41;11;10;
62054;PMS5003;48653;51.742;-1.256;2023-08-17T01:24:05;12;10;
62054;PMS5003;48653;51.742;-1.256;2023-08-17T01:26:30;11;11;
62054;PMS5003;48653;51.742;-1.256;2023-08-17T01:28:55;13;11;
62054;PMS5003;48653;51.742;-1.256;2023-08-17T01:31:23;10;10;
62054;PMS5003;48653;51.742;-1.256;2023-08-17T01:33:48;11;10;
62054;PMS5003;48653;51.742;-1.256;2023-08-17T01:36:11;11;10;
62054;PMS5003;48653;51.742;-1.256;2023-08-17T01:38:36;9;9;
62054;PMS5003;48653;51.742;-1.256;2023-08-17T01:41:01;13;12;
62054;PMS5003;48653;51.742;-1.256;2023-08-17T01:43:27;14;14;
62054;PMS5003;48653;51.742;-1.256;2023-08-17T01:45:52;12;12;
62054;PMS5003;48653;51.742;-1.256;2023-08-17T01:48:17;18;14;
62054;PMS5003;48653;51.742;-1.256;2023-08-17T01:50:43;15;15;
62054;PMS5003;48653;51.742;-1.256;2023-08-17T01:53:08;15;12;
62054;PMS5003;48653;51.742;-1.256;2023-08-17T01:55:34;15;14;
62054;PMS5003;48653;51.742;-1.256;2023-08-17T01:58:00;15;13;
62054;PMS5003;48653;51.742;-1.256;2023-08-17T02:00:24;13;13;
62054;PMS5003;48653;51.742;-1.256;2023-08-17T02:02:50;15;15;
62054;PMS5003;48653;51.742;-1.256;2023-08-17T02:05:15;16;14;
62054;PMS5003;48653;51.742;-1.256;2023-08-17T02:07:41;14;12;
62054;PMS5003;48653;51.742;-1.256;2023-08-17T02:10:06;15;15;
62054;PMS5003;48653;51.742;-1.256;2023-08-17T02:12:32;18;16;
62054;PMS5003;48653;51.742;-1.256;2023-08-17T02:14:57;19;16;
62054;PMS5003;48653;51.742;-1.256;2023-08-17T02:17:22;16;15;
62054;PMS5003;48653;51.742;-1.256;2023-08-17T02:19:48;16;14;
62054;PMS5003;48653;51.742;-1.256;2023-08-17T02:22:14;18;16;
62054;PMS5003;48653;51.742;-1.256;2023-08-17T02:24:38;18;15;
62054;PMS5003;48653;51.742;-1.256;2023-08-17T02:27:04;17;14;
62054;PMS5003;48653;51.742;-1.256;2023-08-17T02:29:29;16;15;
62054;PMS5003;48653;51.742;-1.256;2023-08-17T02:31:55;18;18;
62054;PMS5003;48653;51.742;-1.256;2023-08-17T02:34:20;17;16;
62054;PMS5003;48653;51.742;-1.256;2023-08-17T02:36:46;20;18;
62054;PMS5003;48653;51.742;-1.256;2023-08-17T02:39:11;19;17;
62054;PMS5003;48653;51.742;-1.256;2023-08-17T02:41:36;16;15;
62054;PMS5003;48653;51.742;-1.256;2023-08-17T02:44:02;14;14;
62054;PMS5003;48653;51.742;-1.256;2023-08-17T02:46:27;17;16;
62054;PMS5003;48653;51.742;-1.256;2023-08-17T02:48:52;19;16;
62054;PMS5003;48653;51.742;-1.256;2023-08-17T02:51:17;18;17;
62054;PMS5003;48653;51.742;-1.256;2023-08-17T02:53:42;17;16;
62054;PMS5003;48653;51.742;-1.256;2023-08-17T02:56:07;18;18;
62054;PMS5003;48653;51.742;-1.256;2023-08-17T02:58:33;17;15;
62054;PMS5003;48653;51.742;-1.256;2023-08-17T03:00:58;19;17;
62054;PMS5003;48653;51.742;-1.256;2023-08-17T03:03:23;17;17;
62054;PMS5003;48653;51.742;-1.256;2023-08-17T03:05:49;19;19;
62054;PMS5003;48653;51.742;-1.256;2023-08-17T03:08:15;19;18;
62054;PMS5003;48653;51.742;-1.256;2023-08-17T03:10:40;18;17;
62054;PMS5003;48653;51.742;-1.256;2023-08-17T03:13:06;20;19;
62054;PMS5003;48653;51.742;-1.256;2023-08-17T03:15:31;26;22;
62054;PMS5003;48653;51.742;-1.256;2023-08-17T03:17:57;16;15;
62054;PMS5003;48653;51.742;-1.256;2023-08-17T03:20:22;21;21;
62054;PMS5003;48653;51.742;-1.256;2023-08-17T03:22:47;17;16;
62054;PMS5003;48653;51.742;-1.256;2023-08-17T03:25:12;21;18;
62054;PMS5003;48653;51.742;-1.256;2023-08-17T03:27:38;18;17;
62054;PMS5003;48653;51.742;-1.256;2023-08-17T03:30:04;14;14;
62054;PMS5003;48653;51.742;-1.256;2023-08-17T03:32:28;18;17;
62054;PMS5003;48653;51.742;-1.256;2023-08-17T03:34:53;19;17;
62054;PMS5003;48653;51.742;-1.256;2023-08-17T03:37:19;17;17;
62054;PMS5003;48653;51.742;-1.256;2023-08-17T03:39:45;22;18;
62054;PMS5003;48653;51.742;-1.256;2023-08-17T03:42:10;15;15;
62054;PMS5003;48653;51.742;-1.256;2023-08-17T03:44:35;16;14;
62054;PMS5003;48653;51.742;-1.256;2023-08-17T03:47:01;21;17;
62054;PMS5003;48653;51.742;-1.256;2023-08-17T03:49:25;16;16;
62054;PMS5003;48653;51.742;-1.256;2023-08-17T03:51:51;14;14;
62054;PMS5003;48653;51.742;-1.256;2023-08-17T03:54:16;14;12;
62054;PMS5003;48653;51.742;-1.256;2023-08-17T03:56:41;16;16;
62054;PMS5003;48653;51.742;-1.256;2023-08-17T03:59:07;19;16;
62054;PMS5003;48653;51.742;-1.256;2023-08-17T04:01:32;19;16;
62054;PMS5003;48653;51.742;-1.256;2023-08-17T04:03:57;15;15;
62054;PMS5003;48653;51.742;-1.256;2023-08-17T04:06:22;19;17;
62054;PMS5003;48653;51.742;-1.256;2023-08-17T04:08:48;15;15;
62054;PMS5003;48653;51.742;-1.256;2023-08-17T04:11:13;16;14;
62054;PMS5003;48653;51.742;-1.256;2023-08-17T04:13:39;18;16;
62054;PMS5003;48653;51.742;-1.256;2023-08-17T04:16:04;18;18;
62054;PMS5003;48653;51.742;-1.256;2023-08-17T04:18:29;20;16;
62054;PMS5003;48653;51.742;-1.256;2023-08-17T04:20:54;15;13;
62054;PMS5003;48653;51.742;-1.256;2023-08-17T04:23:19;17;17;
62054;PMS5003;48653;51.742;-1.256;2023-08-17T04:25:46;16;14;
62054;PMS5003;48653;51.742;-1.256;2023-08-17T04:28:11;18;15;
62054;PMS5003;48653;51.742;-1.256;2023-08-17T04:30:37;17;16;
62054;PMS5003;48653;51.742;-1.256;2023-08-17T04:33:01;19;17;
62054;PMS5003;48653;51.742;-1.256;2023-08-17T04:35:26;17;14;
62054;PMS5003;48653;51.742;-1.256;2023-08-17T04:37:52;16;16;
62054;PMS5003;48653;51.742;-1.256;2023-08-17T04:40:16;16;15;
62054;PMS5003;48653;51.742;-1.256;2023-08-17T04:42:42;14;13;
62054;PMS5003;48653;51.742;-1.256;2023-08-17T04:45:07;15;15;
62054;PMS5003;48653;51.742;-1.256;2023-08-17T04:47:32;17;16;
62054;PMS5003;48653;51.742;-1.256;2023-08-17T04:49:57;18;16;
62054;PMS5003;48653;51.742;-1.256;2023-08-17T04:52:23;15;15;
62054;PMS5003;48653;51.742;-1.256;2023-08-17T04:54:48;14;14;
62054;PMS5003;48653;51.742;-1.256;2023-08-17T04:57:13;18;18;
62054;PMS5003;48653;51.742;-1.256;2023-08-17T04:59:40;17;15;
62054;PMS5003;48653;51.742;-1.256;2023-08-17T05:02:04;14;14;
62054;PMS5003;48653;51.742;-1.256;2023-08-17T05:04:30;13;13;
62054;PMS5003;48653;51.742;-1.256;2023-08-17T05:06:55;14;14;
62054;PMS5003;48653;51.742;-1.256;2023-08-17T05:09:20;16;16;
62054;PMS5003;48653;51.742;-1.256;2023-08-17T05:11:45;12;11;
62054;PMS5003;48653;51.742;-1.256;2023-08-17T05:14:10;18;15;
62054;PMS5003;48653;51.742;-1.256;2023-08-17T05:16:36;18;15;
62054;PMS5003;48653;51.742;-1.256;2023-08-17T05:19:02;19;14;
62054;PMS5003;48653;51.742;-1.256;2023-08-17T05:21:26;12;12;
62054;PMS5003;48653;51.742;-1.256;2023-08-17T05:23:52;15;13;
62054;PMS5003;48653;51.742;-1.256;2023-08-17T05:26:17;16;13;
62054;PMS5003;48653;51.742;-1.256;2023-08-17T05:28:42;15;13;
62054;PMS5003;48653;51.742;-1.256;2023-08-17T05:31:07;16;16;
62054;PMS5003;48653;51.742;-1.256;2023-08-17T05:33:32;14;14;
62054;PMS5003;48653;51.742;-1.256;2023-08-17T05:35:57;15;15;
62054;PMS5003;48653;51.742;-1.256;2023-08-17T05:38:22;16;14;
62054;PMS5003;48653;51.742;-1.256;2023-08-17T05:40:47;16;15;
62054;PMS5003;48653;51.742;-1.256;2023-08-17T05:43:12;15;14;
62054;PMS5003;48653;51.742;-1.256;2023-08-17T05:45:37;17;16;
62054;PMS5003;48653;51.742;-1.256;2023-08-17T05:48:03;16;13;
62054;PMS5003;48653;51.742;-1.256;2023-08-17T05:50:27;13;13;
62054;PMS5003;48653;51.742;-1.256;2023-08-17T05:52:54;16;14;
62054;PMS5003;48653;51.742;-1.256;2023-08-17T05:55:18;14;13;
62054;PMS5003;48653;51.742;-1.256;2023-08-17T05:57:43;15;14;
62054;PMS5003;48653;51.742;-1.256;2023-08-17T06:00:09;19;16;
62054;PMS5003;48653;51.742;-1.256;2023-08-17T06:02:34;17;16;
62054;PMS5003;48653;51.742;-1.256;2023-08-17T06:05:00;14;12;
62054;PMS5003;48653;51.742;-1.256;2023-08-17T06:07:24;16;16;
62054;PMS5003;48653;51.742;-1.256;2023-08-17T06:09:50;19;14;
62054;PMS5003;48653;51.742;-1.256;2023-08-17T06:12:16;16;16;
62054;PMS5003;48653;51.742;-1.256;2023-08-17T06:14:42;12;10;
62054;PMS5003;48653;51.742;-1.256;2023-08-17T06:17:07;14;13;
62054;PMS5003;48653;51.742;-1.256;2023-08-17T06:19:32;14;12;
62054;PMS5003;48653;51.742;-1.256;2023-08-17T06:21:58;16;15;
62054;PMS5003;48653;51.742;-1.256;2023-08-17T06:24:23;18;17;
62054;PMS5003;48653;51.742;-1.256;2023-08-17T06:26:49;16;14;
62054;PMS5003;48653;51.742;-1.256;2023-08-17T06:29:14;18;18;
62054;PMS5003;48653;51.742;-1.256;2023-08-17T06:31:39;13;11;
62054;PMS5003;48653;51.742;-1.256;2023-08-17T06:34:05;16;13;
62054;PMS5003;48653;51.742;-1.256;2023-08-17T06:36:30;14;12;
62054;PMS5003;48653;51.742;-1.256;2023-08-17T06:38:55;15;13;
62054;PMS5003;48653;51.742;-1.256;2023-08-17T06:41:21;16;13;
62054;PMS5003;48653;51.742;-1.256;2023-08-17T06:43:46;15;13;
62054;PMS5003;48653;51.742;-1.256;2023-08-17T06:46:12;13;11;
62054;PMS5003;48653;51.742;-1.256;2023-08-17T06:48:37;12;12;
62054;PMS5003;48653;51.742;-1.256;2023-08-17T06:51:03;15;14;
62054;PMS5003;48653;51.742;-1.256;2023-08-17T06:53:28;14;12;
62054;PMS5003;48653;51.742;-1.256;2023-08-17T06:55:53;20;16;
62054;PMS5003;48653;51.742;-1.256;2023-08-17T06:58:19;11;11;
62054;PMS5003;48653;51.742;-1.256;2023-08-17T07:00:44;15;14;
62054;PMS5003;48653;51.742;-1.256;2023-08-17T07:03:09;15;15;
62054;PMS5003;48653;51.742;-1.256;2023-08-17T07:05:35;18;15;
62054;PMS5003;48653;51.742;-1.256;2023-08-17T07:08:00;15;15;
62054;PMS5003;48653;51.742;-1.256;2023-08-17T07:10:26;16;16;
62054;PMS5003;48653;51.742;-1.256;2023-08-17T07:12:51;17;17;
62054;PMS5003;48653;51.742;-1.256;2023-08-17T07:15:17;15;15;
62054;PMS5003;48653;51.742;-1.256;2023-08-17T07:17:42;17;15;
62054;PMS5003;48653;51.742;-1.256;2023-08-17T07:20:08;18;15;
62054;PMS5003;48653;51.742;-1.256;2023-08-17T07:22:33;17;16;
62054;PMS5003;48653;51.742;-1.256;2023-08-17T07:24:59;16;14;
62054;PMS5003;48653;51.742;-1.256;2023-08-17T07:27:25;18;17;
62054;PMS5003;48653;51.742;-1.256;2023-08-17T07:29:50;15;15;
62054;PMS5003;48653;51.742;-1.256;2023-08-17T07:32:16;17;15;
62054;PMS5003;48653;51.742;-1.256;2023-08-17T07:34:41;23;20;
62054;PMS5003;48653;51.742;-1.256;2023-08-17T07:37:06;19;15;
62054;PMS5003;48653;51.742;-1.256;2023-08-17T07:39:32;17;17;
62054;PMS5003;48653;51.742;-1.256;2023-08-17T07:41:57;15;14;
62054;PMS5003;48653;51.742;-1.256;2023-08-17T07:44:23;18;17;
62054;PMS5003;48653;51.742;-1.256;2023-08-17T07:46:48;17;15;
62054;PMS5003;48653;51.742;-1.256;2023-08-17T07:49:14;21;17;
62054;PMS5003;48653;51.742;-1.256;2023-08-17T07:51:39;16;16;
62054;PMS5003;48653;51.742;-1.256;2023-08-17T07:54:04;19;16;
62054;PMS5003;48653;51.742;-1.256;2023-08-17T07:56:29;17;15;
62054;PMS5003;48653;51.742;-1.256;2023-08-17T07:58:54;14;13;
62054;PMS5003;48653;51.742;-1.256;2023-08-17T08:01:19;18;17;
62054;PMS5003;48653;51.742;-1.256;2023-08-17T08:06:11;16;15;
62054;PMS5003;48653;51.742;-1.256;2023-08-17T08:08:36;13;13;
62054;PMS5003;48653;51.742;-1.256;2023-08-17T08:11:01;14;14;
62054;PMS5003;48653;51.742;-1.256;2023-08-17T08:13:26;16;16;
62054;PMS5003;48653;51.742;-1.256;2023-08-17T08:15:51;17;15;
62054;PMS5003;48653;51.742;-1.256;2023-08-17T08:18:16;14;12;
62054;PMS5003;48653;51.742;-1.256;2023-08-17T08:37:38;15;14;
62054;PMS5003;48653;51.742;-1.256;2023-08-17T08:40:04;15;12;
62054;PMS5003;48653;51.742;-1.256;2023-08-17T08:42:29;24;18;
62054;PMS5003;48653;51.742;-1.256;2023-08-17T08:44:54;14;11;
62054;PMS5003;48653;51.742;-1.256;2023-08-17T08:49:49;13;13;
62054;PMS5003;48653;51.742;-1.256;2023-08-17T08:52:11;13;13;
62054;PMS5003;48653;51.742;-1.256;2023-08-17T08:54:35;13;13;
62054;PMS5003;48653;51.742;-1.256;2023-08-17T08:57:01;10;9;
62054;PMS5003;48653;51.742;-1.256;2023-08-17T08:59:26;13;13;
62054;PMS5003;48653;51.742;-1.256;2023-08-17T09:01:51;14;11;
62054;PMS5003;48653;51.742;-1.256;2023-08-17T09:04:16;15;14;
62054;PMS5003;48653;51.742;-1.256;2023-08-17T09:06:42;12;9;
62054;PMS5003;48653;51.742;-1.256;2023-08-17T09:09:07;13;11;
62054;PMS5003;48653;51.742;-1.256;2023-08-17T09:11:32;11;11;
62054;PMS5003;48653;51.742;-1.256;2023-08-17T09:13:58;11;10;
62054;PMS5003;48653;51.742;-1.256;2023-08-17T09:16:23;11;9;
62054;PMS5003;48653;51.742;-1.256;2023-08-17T09:18:47;11;11;
62054;PMS5003;48653;51.742;-1.256;2023-08-17T09:23:38;10;10;
62054;PMS5003;48653;51.742;-1.256;2023-08-17T09:26:07;12;10;
62054;PMS5003;48653;51.742;-1.256;2023-08-17T09:28:28;12;11;
62054;PMS5003;48653;51.742;-1.256;2023-08-17T09:30:54;10;10;
62054;PMS5003;48653;51.742;-1.256;2023-08-17T09:33:20;11;11;
62054;PMS5003;48653;51.742;-1.256;2023-08-17T09:35:44;13;11;
62054;PMS5003;48653;51.742;-1.256;2023-08-17T09:38:10;13;13;
62054;PMS5003;48653;51.742;-1.256;2023-08-17T09:40:34;13;11;
62054;PMS5003;48653;51.742;-1.256;2023-08-17T09:45:26;11;11;
62054;PMS5003;48653;51.742;-1.256;2023-08-17T09:52:42;10;10;
62054;PMS5003;48653;51.742;-1.256;2023-08-17T09:55:08;9;7;
62054;PMS5003;48653;51.742;-1.256;2023-08-17T09:59:58;9;9;
62054;PMS5003;48653;51.742;-1.256;2023-08-17T10:02:23;11;9;
62054;PMS5003;48653;51.742;-1.256;2023-08-17T10:09:40;12;10;
62054;PMS5003;48653;51.742;-1.256;2023-08-17T10:41:09;11;11;
62054;PMS5003;48653;51.742;-1.256;2023-08-17T10:43:32;13;12;
62054;PMS5003;48653;51.742;-1.256;2023-08-17T10:48:25;14;11;
62054;PMS5003;48653;51.742;-1.256;2023-08-17T10:53:12;12;10;
62054;PMS5003;48653;51.742;-1.256;2023-08-17T10:55:37;9;9;
62054;PMS5003;48653;51.742;-1.256;2023-08-17T10:58:03;9;9;
62054;PMS5003;48653;51.742;-1.256;2023-08-17T11:00:31;7;7;
62054;PMS5003;48653;51.742;-1.256;2023-08-17T11:02:53;13;10;
62054;PMS5003;48653;51.742;-1.256;2023-08-17T11:07:43;8;8;
62054;PMS5003;48653;51.742;-1.256;2023-08-17T11:10:11;10;6;
62054;PMS5003;48653;51.742;-1.256;2023-08-17T11:12:32;10;10;
62054;PMS5003;48653;51.742;-1.256;2023-08-17T11:14:58;10;7;
62054;PMS5003;48653;51.742;-1.256;2023-08-17T11:17:22;8;6;
62054;PMS5003;48653;51.742;-1.256;2023-08-17T11:19:48;6;6;
62054;PMS5003;48653;51.742;-1.256;2023-08-17T11:22:12;8;8;
62054;PMS5003;48653;51.742;-1.256;2023-08-17T11:24:38;8;8;
62054;PMS5003;48653;51.742;-1.256;2023-08-17T11:27:03;8;8;
62054;PMS5003;48653;51.742;-1.256;2023-08-17T11:29:30;6;6;
62054;PMS5003;48653;51.742;-1.256;2023-08-17T11:31:53;7;7;
62054;PMS5003;48653;51.742;-1.256;2023-08-17T11:34:18;6;6;
62054;PMS5003;48653;51.742;-1.256;2023-08-17T11:36:43;5;5;
62054;PMS5003;48653;51.742;-1.256;2023-08-17T11:39:08;12;8;
62054;PMS5003;48653;51.742;-1.256;2023-08-17T11:41:33;5;5;
62054;PMS5003;48653;51.742;-1.256;2023-08-17T11:43:58;11;7;
62054;PMS5003;48653;51.742;-1.256;2023-08-17T11:46:23;8;5;
62054;PMS5003;48653;51.742;-1.256;2023-08-17T11:48:48;6;6;
62054;PMS5003;48653;51.742;-1.256;2023-08-17T11:51:13;6;6;
62054;PMS5003;48653;51.742;-1.256;2023-08-17T11:53:38;9;6;
62054;PMS5003;48653;51.742;-1.256;2023-08-17T11:56:03;8;6;
62054;PMS5003;48653;51.742;-1.256;2023-08-17T11:58:36;8;5;
62054;PMS5003;48653;51.742;-1.256;2023-08-17T12:00:53;6;6;
62054;PMS5003;48653;51.742;-1.256;2023-08-17T12:03:19;6;5;
62054;PMS5003;48653;51.742;-1.256;2023-08-17T12:05:43;5;5;
62054;PMS5003;48653;51.742;-1.256;2023-08-17T12:08:08;6;6;
62054;PMS5003;48653;51.742;-1.256;2023-08-17T12:10:33;4;4;
62054;PMS5003;48653;51.742;-1.256;2023-08-17T12:12:58;4;2;
62054;PMS5003;48653;51.742;-1.256;2023-08-17T12:15:23;7;6;
62054;PMS5003;48653;51.742;-1.256;2023-08-17T12:17:48;7;6;
62054;PMS5003;48653;51.742;-1.256;2023-08-17T12:20:15;5;5;
62054;PMS5003;48653;51.742;-1.256;2023-08-17T12:22:39;5;5;
62054;PMS5003;48653;51.742;-1.256;2023-08-17T12:25:03;5;5;
62054;PMS5003;48653;51.742;-1.256;2023-08-17T12:27:28;5;4;
62054;PMS5003;48653;51.742;-1.256;2023-08-17T12:29:53;3;3;
62054;PMS5003;48653;51.742;-1.256;2023-08-17T12:32:19;4;4;
62054;PMS5003;48653;51.742;-1.256;2023-08-17T12:34:43;4;4;
62054;PMS5003;48653;51.742;-1.256;2023-08-17T12:37:08;4;4;
62054;PMS5003;48653;51.742;-1.256;2023-08-17T12:39:33;4;3;
62054;PMS5003;48653;51.742;-1.256;2023-08-17T12:41:58;4;3;
62054;PMS5003;48653;51.742;-1.256;2023-08-17T12:44:23;5;5;
62054;PMS5003;48653;51.742;-1.256;2023-08-17T12:46:48;4;3;
62054;PMS5003;48653;51.742;-1.256;2023-08-17T12:49:13;4;4;
62054;PMS5003;48653;51.742;-1.256;2023-08-17T12:51:38;4;4;
62054;PMS5003;48653;51.742;-1.256;2023-08-17T12:54:03;6;5;
62054;PMS5003;48653;51.742;-1.256;2023-08-17T12:56:28;5;5;
62054;PMS5003;48653;51.742;-1.256;2023-08-17T12:58:53;3;3;
62054;PMS5003;48653;51.742;-1.256;2023-08-17T13:01:18;6;4;
62054;PMS5003;48653;51.742;-1.256;2023-08-17T13:03:43;4;3;
62054;PMS5003;48653;51.742;-1.256;2023-08-17T13:06:08;5;3;
62054;PMS5003;48653;51.742;-1.256;2023-08-17T13:08:33;5;3;
62054;PMS5003;48653;51.742;-1.256;2023-08-17T13:10:59;5;4;
62054;PMS5003;48653;51.742;-1.256;2023-08-17T13:13:24;5;5;
62054;PMS5003;48653;51.742;-1.256;2023-08-17T13:15:49;4;4;
62054;PMS5003;48653;51.742;-1.256;2023-08-17T13:18:14;5;4;
62054;PMS5003;48653;51.742;-1.256;2023-08-17T13:20:39;3;3;
62054;PMS5003;48653;51.742;-1.256;2023-08-17T13:23:04;4;4;
62054;PMS5003;48653;51.742;-1.256;2023-08-17T13:25:29;5;5;
62054;PMS5003;48653;51.742;-1.256;2023-08-17T13:27:54;5;5;
62054;PMS5003;48653;51.742;-1.256;2023-08-17T13:30:19;4;4;
62054;PMS5003;48653;51.742;-1.256;2023-08-17T13:32:44;4;3;
62054;PMS5003;48653;51.742;-1.256;2023-08-17T13:35:09;5;5;
62054;PMS5003;48653;51.742;-1.256;2023-08-17T13:37:36;4;4;
62054;PMS5003;48653;51.742;-1.256;2023-08-17T13:39:59;6;6;
62054;PMS5003;48653;51.742;-1.256;2023-08-17T13:42:24;4;4;
62054;PMS5003;48653;51.742;-1.256;2023-08-17T13:44:49;4;4;
62054;PMS5003;48653;51.742;-1.256;2023-08-17T13:47:14;4;3;
62054;PMS5003;48653;51.742;-1.256;2023-08-17T13:49:39;4;4;
62054;PMS5003;48653;51.742;-1.256;2023-08-17T13:52:04;4;4;
62054;PMS5003;48653;51.742;-1.256;2023-08-17T13:54:29;3;3;
62054;PMS5003;48653;51.742;-1.256;2023-08-17T13:56:54;5;5;
62054;PMS5003;48653;51.742;-1.256;2023-08-17T13:59:19;4;4;
62054;PMS5003;48653;51.742;-1.256;2023-08-17T14:01:44;6;5;
62054;PMS5003;48653;51.742;-1.256;2023-08-17T14:04:09;3;3;
62054;PMS5003;48653;51.742;-1.256;2023-08-17T14:06:34;7;5;
62054;PMS5003;48653;51.742;-1.256;2023-08-17T14:08:59;4;4;
62054;PMS5003;48653;51.742;-1.256;2023-08-17T14:11:24;4;2;
62054;PMS5003;48653;51.742;-1.256;2023-08-17T14:13:49;3;3;
62054;PMS5003;48653;51.742;-1.256;2023-08-17T14:16:14;2;2;
62054;PMS5003;48653;51.742;-1.256;2023-08-17T14:18:39;3;3;
62054;PMS5003;48653;51.742;-1.256;2023-08-17T14:21:04;3;3;
62054;PMS5003;48653;51.742;-1.256;2023-08-17T14:23:29;4;4;
62054;PMS5003;48653;51.742;-1.256;2023-08-17T14:25:54;6;4;
62054;PMS5003;48653;51.742;-1.256;2023-08-17T14:28:19;4;3;
62054;PMS5003;48653;51.742;-1.256;2023-08-17T14:30:44;3;3;
62054;PMS5003;48653;51.742;-1.256;2023-08-17T14:33:09;4;4;
62054;PMS5003;48653;51.742;-1.256;2023-08-17T14:35:34;6;5;
62054;PMS5003;48653;51.742;-1.256;2023-08-17T14:37:59;4;4;
62054;PMS5003;48653;51.742;-1.256;2023-08-17T14:40:24;4;4;
62054;PMS5003;48653;51.742;-1.256;2023-08-17T14:42:49;4;4;
62054;PMS5003;48653;51.742;-1.256;2023-08-17T14:45:15;5;5;
62054;PMS5003;48653;51.742;-1.256;2023-08-17T14:47:39;6;3;
62054;PMS5003;48653;51.742;-1.256;2023-08-17T14:50:05;5;4;
62054;PMS5003;48653;51.742;-1.256;2023-08-17T14:52:29;5;4;
62054;PMS5003;48653;51.742;-1.256;2023-08-17T14:54:54;5;5;
62054;PMS5003;48653;51.742;-1.256;2023-08-17T14:57:19;7;6;
62054;PMS5003;48653;51.742;-1.256;2023-08-17T14:59:44;4;4;
62054;PMS5003;48653;51.742;-1.256;2023-08-17T15:02:09;3;3;
62054;PMS5003;48653;51.742;-1.256;2023-08-17T15:04:34;5;4;
62054;PMS5003;48653;51.742;-1.256;2023-08-17T15:06:59;4;4;
62054;PMS5003;48653;51.742;-1.256;2023-08-17T15:09:24;4;4;
62054;PMS5003;48653;51.742;-1.256;2023-08-17T15:11:49;4;4;
62054;PMS5003;48653;51.742;-1.256;2023-08-17T15:14:14;4;4;
62054;PMS5003;48653;51.742;-1.256;2023-08-17T15:16:40;3;3;
62054;PMS5003;48653;51.742;-1.256;2023-08-17T15:19:05;5;4;
62054;PMS5003;48653;51.742;-1.256;2023-08-17T15:21:30;5;5;
62054;PMS5003;48653;51.742;-1.256;2023-08-17T15:23:55;4;4;
62054;PMS5003;48653;51.742;-1.256;2023-08-17T15:26:20;3;3;
62054;PMS5003;48653;51.742;-1.256;2023-08-17T15:28:45;5;5;
62054;PMS5003;48653;51.742;-1.256;2023-08-17T15:31:10;3;3;
62054;PMS5003;48653;51.742;-1.256;2023-08-17T15:33:35;6;5;
62054;PMS5003;48653;51.742;-1.256;2023-08-17T15:36:00;4;4;
62054;PMS5003;48653;51.742;-1.256;2023-08-17T15:38:25;3;2;
62054;PMS5003;48653;51.742;-1.256;2023-08-17T15:40:51;3;3;
62054;PMS5003;48653;51.742;-1.256;2023-08-17T15:43:16;6;4;
62054;PMS5003;48653;51.742;-1.256;2023-08-17T15:45:41;4;4;
62054;PMS5003;48653;51.742;-1.256;2023-08-17T15:48:06;4;4;
62054;PMS5003;48653;51.742;-1.256;2023-08-17T15:50:31;5;5;
62054;PMS5003;48653;51.742;-1.256;2023-08-17T15:52:56;3;3;
62054;PMS5003;48653;51.742;-1.256;2023-08-17T15:55:21;5;5;
62054;PMS5003;48653;51.742;-1.256;2023-08-17T15:57:46;5;4;
62054;PMS5003;48653;51.742;-1.256;2023-08-17T16:00:12;3;3;
62054;PMS5003;48653;51.742;-1.256;2023-08-17T16:02:36;4;4;
62054;PMS5003;48653;51.742;-1.256;2023-08-17T16:05:01;4;4;
62054;PMS5003;48653;51.742;-1.256;2023-08-17T16:07:26;3;3;
62054;PMS5003;48653;51.742;-1.256;2023-08-17T16:09:51;4;4;
62054;PMS5003;48653;51.742;-1.256;2023-08-17T16:12:16;3;3;
62054;PMS5003;48653;51.742;-1.256;2023-08-17T16:14:41;3;3;
62054;PMS5003;48653;51.742;-1.256;2023-08-17T16:17:06;3;3;
62054;PMS5003;48653;51.742;-1.256;2023-08-17T16:19:31;3;3;
62054;PMS5003;48653;51.742;-1.256;2023-08-17T16:21:56;3;3;
62054;PMS5003;48653;51.742;-1.256;2023-08-17T16:24:21;4;4;
62054;PMS5003;48653;51.742;-1.256;2023-08-17T16:26:46;3;3;
62054;PMS5003;48653;51.742;-1.256;2023-08-17T16:29:12;4;4;
62054;PMS5003;48653;51.742;-1.256;2023-08-17T16:31:37;5;4;
62054;PMS5003;48653;51.742;-1.256;2023-08-17T16:34:02;7;4;
62054;PMS5003;48653;51.742;-1.256;2023-08-17T16:36:27;5;4;
62054;PMS5003;48653;51.742;-1.256;2023-08-17T16:38:52;5;5;
62054;PMS5003;48653;51.742;-1.256;2023-08-17T16:41:17;4;4;
62054;PMS5003;48653;51.742;-1.256;2023-08-17T16:43:42;4;3;
62054;PMS5003;48653;51.742;-1.256;2023-08-17T16:46:07;6;4;
62054;PMS5003;48653;51.742;-1.256;2023-08-17T16:48:33;4;4;
62054;PMS5003;48653;51.742;-1.256;2023-08-17T16:50:57;2;2;
62054;PMS5003;48653;51.742;-1.256;2023-08-17T16:53:23;5;4;
62054;PMS5003;48653;51.742;-1.256;2023-08-17T16:55:47;6;5;
62054;PMS5003;48653;51.742;-1.256;2023-08-17T16:58:12;7;5;
62054;PMS5003;48653;51.742;-1.256;2023-08-17T17:00:37;4;4;
62054;PMS5003;48653;51.742;-1.256;2023-08-17T17:03:03;3;3;
62054;PMS5003;48653;51.742;-1.256;2023-08-17T17:05:27;6;4;
62054;PMS5003;48653;51.742;-1.256;2023-08-17T17:07:53;4;4;
62054;PMS5003;48653;51.742;-1.256;2023-08-17T17:10:18;3;3;
62054;PMS5003;48653;51.742;-1.256;2023-08-17T17:12:43;4;4;
62054;PMS5003;48653;51.742;-1.256;2023-08-17T17:15:08;5;5;